sensor_id;sensor_type;location;lat;lon;timestamp;temperature;humidity
23681;DHT22;62915;50.832;4.462;2023-01-28T00:01:16;5.80;99.90
23681;DHT22;62915;50.832;4.462;2023-01-28T00:03:42;5.90;99.90
23681;DHT22;62915;50.832;4.462;2023-01-28T00:06:13;5.80;99.90
23681;DHT22;62915;50.832;4.462;2023-01-28T00:08:39;5.70;99.90
23681;DHT22;62915;50.832;4.462;2023-01-28T00:11:07;5.80;99.90
23681;DHT22;62915;50.832;4.462;2023-01-28T00:13:34;5.80;99.90
23681;DHT22;62915;50.832;4.462;2023-01-28T00:16:04;5.90;99.90
23681;DHT22;62915;50.832;4.462;2023-01-28T00:18:32;5.80;99.90
23681;DHT22;62915;50.832;4.462;2023-01-28T00:21:02;5.80;99.90
23681;DHT22;62915;50.832;4.462;2023-01-28T00:23:30;5.80;99.90
23681;DHT22;62915;50.832;4.462;2023-01-28T00:26:06;5.80;99.90
23681;DHT22;62915;50.832;4.462;2023-01-28T00:28:32;5.80;99.90
23681;DHT22;62915;50.832;4.462;2023-01-28T00:30:58;5.70;99.90
23681;DHT22;62915;50.832;4.462;2023-01-28T00:33:23;5.60;99.90
23681;DHT22;62915;50.832;4.462;2023-01-28T00:35:59;5.70;99.90
23681;DHT22;62915;50.832;4.462;2023-01-28T00:38:26;5.60;99.90
23681;DHT22;62915;50.832;4.462;2023-01-28T00:40:52;5.60;99.90
23681;DHT22;62915;50.832;4.462;2023-01-28T00:43:18;5.70;99.90
23681;DHT22;62915;50.832;4.462;2023-01-28T00:45:43;5.70;99.90
23681;DHT22;62915;50.832;4.462;2023-01-28T00:48:09;5.60;99.90
23681;DHT22;62915;50.832;4.462;2023-01-28T00:50:35;5.60;99.90
23681;DHT22;62915;50.832;4.462;2023-01-28T00:53:00;5.80;99.90
23681;DHT22;62915;50.832;4.462;2023-01-28T00:55:26;5.70;99.90
23681;DHT22;62915;50.832;4.462;2023-01-28T00:57:53;5.80;99.90
23681;DHT22;62915;50.832;4.462;2023-01-28T01:00:19;5.80;99.90
23681;DHT22;62915;50.832;4.462;2023-01-28T01:02:50;5.80;99.90
23681;DHT22;62915;50.832;4.462;2023-01-28T01:05:16;5.90;99.90
23681;DHT22;62915;50.832;4.462;2023-01-28T01:07:42;5.90;99.90
23681;DHT22;62915;50.832;4.462;2023-01-28T01:10:13;6.00;99.90
23681;DHT22;62915;50.832;4.462;2023-01-28T01:12:39;5.90;99.90
23681;DHT22;62915;50.832;4.462;2023-01-28T01:15:07;5.60;99.90
23681;DHT22;62915;50.832;4.462;2023-01-28T01:17:39;5.70;99.90
23681;DHT22;62915;50.832;4.462;2023-01-28T01:20:08;5.80;99.90
23681;DHT22;62915;50.832;4.462;2023-01-28T01:22:35;5.90;99.90
23681;DHT22;62915;50.832;4.462;2023-01-28T01:25:02;5.80;99.90
23681;DHT22;62915;50.832;4.462;2023-01-28T01:27:29;5.70;99.90
23681;DHT22;62915;50.832;4.462;2023-01-28T01:29:55;5.60;99.90
23681;DHT22;62915;50.832;4.462;2023-01-28T01:32:21;5.50;99.90
23681;DHT22;62915;50.832;4.462;2023-01-28T01:34:47;5.50;99.90
23681;DHT22;62915;50.832;4.462;2023-01-28T01:37:13;5.50;99.90
23681;DHT22;62915;50.832;4.462;2023-01-28T01:39:39;5.40;99.90
23681;DHT22;62915;50.832;4.462;2023-01-28T01:42:04;5.30;99.90
23681;DHT22;62915;50.832;4.462;2023-01-28T01:52:42;5.60;99.90
23681;DHT22;62915;50.832;4.462;2023-01-28T01:55:12;5.60;99.90
23681;DHT22;62915;50.832;4.462;2023-01-28T01:57:39;5.60;99.90
23681;DHT22;62915;50.832;4.462;2023-01-28T02:00:06;5.70;99.90
23681;DHT22;62915;50.832;4.462;2023-01-28T02:02:40;5.60;99.90
23681;DHT22;62915;50.832;4.462;2023-01-28T02:05:06;5.60;99.90
23681;DHT22;62915;50.832;4.462;2023-01-28T02:07:33;5.50;99.90
23681;DHT22;62915;50.832;4.462;2023-01-28T02:09:59;5.50;99.90
23681;DHT22;62915;50.832;4.462;2023-01-28T02:12:32;5.40;99.90
23681;DHT22;62915;50.832;4.462;2023-01-28T02:15:11;5.50;99.90
23681;DHT22;62915;50.832;4.462;2023-01-28T02:17:38;5.50;99.90
23681;DHT22;62915;50.832;4.462;2023-01-28T02:20:13;5.60;99.90
23681;DHT22;62915;50.832;4.462;2023-01-28T02:30:41;5.50;99.90
23681;DHT22;62915;50.832;4.462;2023-01-28T02:33:32;5.50;99.90
23681;DHT22;62915;50.832;4.462;2023-01-28T02:36:12;5.50;99.90
23681;DHT22;62915;50.832;4.462;2023-01-28T02:38:47;5.40;99.90
23681;DHT22;62915;50.832;4.462;2023-01-28T02:41:19;5.40;99.90
23681;DHT22;62915;50.832;4.462;2023-01-28T02:43:46;5.40;99.90
23681;DHT22;62915;50.832;4.462;2023-01-28T02:46:31;5.40;99.90
23681;DHT22;62915;50.832;4.462;2023-01-28T02:49:28;5.40;99.90
23681;DHT22;62915;50.832;4.462;2023-01-28T02:55:02;5.30;99.90
23681;DHT22;62915;50.832;4.462;2023-01-28T02:57:45;5.20;99.90
23681;DHT22;62915;50.832;4.462;2023-01-28T03:05:54;5.30;99.90
23681;DHT22;62915;50.832;4.462;2023-01-28T03:08:41;5.50;99.90
23681;DHT22;62915;50.832;4.462;2023-01-28T03:11:30;5.40;99.90
23681;DHT22;62915;50.832;4.462;2023-01-28T03:14:16;5.40;99.90
23681;DHT22;62915;50.832;4.462;2023-01-28T03:17:02;5.40;99.90
23681;DHT22;62915;50.832;4.462;2023-01-28T03:19:48;5.30;99.90
23681;DHT22;62915;50.832;4.462;2023-01-28T03:22:36;5.10;99.90
23681;DHT22;62915;50.832;4.462;2023-01-28T03:25:24;5.00;99.90
23681;DHT22;62915;50.832;4.462;2023-01-28T03:28:12;5.00;99.90
23681;DHT22;62915;50.832;4.462;2023-01-28T03:31:06;5.10;99.90
23681;DHT22;62915;50.832;4.462;2023-01-28T03:33:53;5.00;99.90
23681;DHT22;62915;50.832;4.462;2023-01-28T03:36:39;5.00;99.90
23681;DHT22;62915;50.832;4.462;2023-01-28T03:39:22;4.90;99.90
23681;DHT22;62915;50.832;4.462;2023-01-28T03:42:18;4.90;99.90
23681;DHT22;62915;50.832;4.462;2023-01-28T03:44:43;4.90;99.90
23681;DHT22;62915;50.832;4.462;2023-01-28T03:47:26;4.90;99.90
23681;DHT22;62915;50.832;4.462;2023-01-28T03:49:54;5.00;99.90
23681;DHT22;62915;50.832;4.462;2023-01-28T03:52:24;5.10;99.90
23681;DHT22;62915;50.832;4.462;2023-01-28T03:54:50;5.10;99.90
23681;DHT22;62915;50.832;4.462;2023-01-28T03:57:20;5.00;99.90
23681;DHT22;62915;50.832;4.462;2023-01-28T03:59:46;5.00;99.90
23681;DHT22;62915;50.832;4.462;2023-01-28T04:02:14;5.00;99.90
23681;DHT22;62915;50.832;4.462;2023-01-28T04:04:41;4.90;99.90
23681;DHT22;62915;50.832;4.462;2023-01-28T04:07:08;4.80;99.90
23681;DHT22;62915;50.832;4.462;2023-01-28T04:09:35;4.80;99.90
23681;DHT22;62915;50.832;4.462;2023-01-28T04:12:02;4.80;99.90
23681;DHT22;62915;50.832;4.462;2023-01-28T04:14:28;4.90;99.90
23681;DHT22;62915;50.832;4.462;2023-01-28T04:16:54;4.80;99.90
23681;DHT22;62915;50.832;4.462;2023-01-28T04:19:20;4.90;99.90
23681;DHT22;62915;50.832;4.462;2023-01-28T04:21:46;4.90;99.90
23681;DHT22;62915;50.832;4.462;2023-01-28T04:24:12;5.00;99.90
23681;DHT22;62915;50.832;4.462;2023-01-28T04:26:38;5.00;99.90
23681;DHT22;62915;50.832;4.462;2023-01-28T04:29:03;5.00;99.90
23681;DHT22;62915;50.832;4.462;2023-01-28T04:31:29;5.00;99.90
23681;DHT22;62915;50.832;4.462;2023-01-28T04:33:55;4.90;99.90
23681;DHT22;62915;50.832;4.462;2023-01-28T04:36:21;4.90;99.90
23681;DHT22;62915;50.832;4.462;2023-01-28T04:38:47;4.90;99.90
23681;DHT22;62915;50.832;4.462;2023-01-28T04:41:13;4.80;99.90
23681;DHT22;62915;50.832;4.462;2023-01-28T04:43:39;4.80;99.90
23681;DHT22;62915;50.832;4.462;2023-01-28T04:46:04;4.80;99.90
23681;DHT22;62915;50.832;4.462;2023-01-28T04:48:30;4.80;99.90
23681;DHT22;62915;50.832;4.462;2023-01-28T04:50:57;4.90;99.90
23681;DHT22;62915;50.832;4.462;2023-01-28T04:53:22;4.90;99.90
23681;DHT22;62915;50.832;4.462;2023-01-28T04:55:48;4.90;99.90
23681;DHT22;62915;50.832;4.462;2023-01-28T04:58:13;5.00;99.90
23681;DHT22;62915;50.832;4.462;2023-01-28T05:00:39;5.10;99.90
23681;DHT22;62915;50.832;4.462;2023-01-28T05:03:05;4.90;99.90
23681;DHT22;62915;50.832;4.462;2023-01-28T05:05:30;5.00;99.90
23681;DHT22;62915;50.832;4.462;2023-01-28T05:07:57;5.10;99.90
23681;DHT22;62915;50.832;4.462;2023-01-28T05:10:24;5.00;99.90
23681;DHT22;62915;50.832;4.462;2023-01-28T05:12:50;5.00;99.90
23681;DHT22;62915;50.832;4.462;2023-01-28T05:15:17;4.90;99.90
23681;DHT22;62915;50.832;4.462;2023-01-28T05:17:43;4.90;99.90
23681;DHT22;62915;50.832;4.462;2023-01-28T05:20:11;5.00;99.90
23681;DHT22;62915;50.832;4.462;2023-01-28T05:22:37;5.00;99.90
23681;DHT22;62915;50.832;4.462;2023-01-28T05:25:04;4.90;99.90
23681;DHT22;62915;50.832;4.462;2023-01-28T05:27:30;4.80;99.90
23681;DHT22;62915;50.832;4.462;2023-01-28T05:29:57;4.80;99.90
23681;DHT22;62915;50.832;4.462;2023-01-28T05:32:23;4.80;99.90
23681;DHT22;62915;50.832;4.462;2023-01-28T05:34:49;4.70;99.90
23681;DHT22;62915;50.832;4.462;2023-01-28T05:37:15;4.70;99.90
23681;DHT22;62915;50.832;4.462;2023-01-28T05:39:40;4.70;99.90
23681;DHT22;62915;50.832;4.462;2023-01-28T05:42:06;4.60;99.90
23681;DHT22;62915;50.832;4.462;2023-01-28T05:44:32;4.60;99.90
23681;DHT22;62915;50.832;4.462;2023-01-28T05:46:58;4.60;99.90
23681;DHT22;62915;50.832;4.462;2023-01-28T05:49:23;4.60;99.90
23681;DHT22;62915;50.832;4.462;2023-01-28T05:51:51;4.70;99.90
23681;DHT22;62915;50.832;4.462;2023-01-28T05:54:16;4.50;99.90
23681;DHT22;62915;50.832;4.462;2023-01-28T05:56:42;4.50;99.90
23681;DHT22;62915;50.832;4.462;2023-01-28T05:59:10;4.60;99.90
23681;DHT22;62915;50.832;4.462;2023-01-28T06:01:36;4.60;99.90
23681;DHT22;62915;50.832;4.462;2023-01-28T06:04:02;4.60;99.90
23681;DHT22;62915;50.832;4.462;2023-01-28T06:06:28;4.70;99.90
23681;DHT22;62915;50.832;4.462;2023-01-28T06:08:54;4.80;99.90
23681;DHT22;62915;50.832;4.462;2023-01-28T06:11:20;4.80;99.90
23681;DHT22;62915;50.832;4.462;2023-01-28T06:13:45;4.90;99.90
23681;DHT22;62915;50.832;4.462;2023-01-28T06:16:11;4.70;99.90
23681;DHT22;62915;50.832;4.462;2023-01-28T06:18:37;4.70;99.90
23681;DHT22;62915;50.832;4.462;2023-01-28T06:21:02;4.70;99.90
23681;DHT22;62915;50.832;4.462;2023-01-28T06:23:28;4.80;99.90
23681;DHT22;62915;50.832;4.462;2023-01-28T06:25:55;4.80;99.90
23681;DHT22;62915;50.832;4.462;2023-01-28T06:28:22;4.80;99.90
23681;DHT22;62915;50.832;4.462;2023-01-28T06:30:49;4.90;99.90
23681;DHT22;62915;50.832;4.462;2023-01-28T06:33:19;4.90;99.90
23681;DHT22;62915;50.832;4.462;2023-01-28T06:35:46;4.90;99.90
23681;DHT22;62915;50.832;4.462;2023-01-28T06:38:12;4.70;99.90
23681;DHT22;62915;50.832;4.462;2023-01-28T06:40:39;4.70;99.90
23681;DHT22;62915;50.832;4.462;2023-01-28T06:43:05;4.60;99.90
23681;DHT22;62915;50.832;4.462;2023-01-28T06:45:32;4.60;99.90
23681;DHT22;62915;50.832;4.462;2023-01-28T06:47:57;4.50;99.90
23681;DHT22;62915;50.832;4.462;2023-01-28T06:50:23;4.50;99.90
23681;DHT22;62915;50.832;4.462;2023-01-28T06:52:49;4.50;99.90
23681;DHT22;62915;50.832;4.462;2023-01-28T06:55:16;4.50;99.90
23681;DHT22;62915;50.832;4.462;2023-01-28T06:57:42;4.60;99.90
23681;DHT22;62915;50.832;4.462;2023-01-28T07:00:11;4.50;99.90
23681;DHT22;62915;50.832;4.462;2023-01-28T07:02:38;4.50;99.90
23681;DHT22;62915;50.832;4.462;2023-01-28T07:05:04;4.50;99.90
23681;DHT22;62915;50.832;4.462;2023-01-28T07:07:30;4.40;99.90
23681;DHT22;62915;50.832;4.462;2023-01-28T07:09:56;4.30;99.90
23681;DHT22;62915;50.832;4.462;2023-01-28T07:12:21;4.20;99.90
23681;DHT22;62915;50.832;4.462;2023-01-28T07:14:47;4.30;99.90
23681;DHT22;62915;50.832;4.462;2023-01-28T07:17:14;4.40;99.90
23681;DHT22;62915;50.832;4.462;2023-01-28T07:19:39;4.40;99.90
23681;DHT22;62915;50.832;4.462;2023-01-28T07:22:05;4.50;99.90
23681;DHT22;62915;50.832;4.462;2023-01-28T07:24:31;4.50;99.90
23681;DHT22;62915;50.832;4.462;2023-01-28T07:26:57;4.30;99.90
23681;DHT22;62915;50.832;4.462;2023-01-28T07:29:23;4.30;99.90
23681;DHT22;62915;50.832;4.462;2023-01-28T07:31:48;4.40;99.90
23681;DHT22;62915;50.832;4.462;2023-01-28T07:34:14;4.30;99.90
23681;DHT22;62915;50.832;4.462;2023-01-28T07:36:40;4.40;99.90
23681;DHT22;62915;50.832;4.462;2023-01-28T07:39:05;4.40;99.90
23681;DHT22;62915;50.832;4.462;2023-01-28T07:41:34;4.50;99.90
23681;DHT22;62915;50.832;4.462;2023-01-28T07:44:00;4.60;99.90
23681;DHT22;62915;50.832;4.462;2023-01-28T07:46:25;4.50;99.90
23681;DHT22;62915;50.832;4.462;2023-01-28T07:48:52;4.50;99.90
23681;DHT22;62915;50.832;4.462;2023-01-28T07:51:18;4.50;99.90
23681;DHT22;62915;50.832;4.462;2023-01-28T07:53:43;4.30;99.90
23681;DHT22;62915;50.832;4.462;2023-01-28T07:56:09;4.30;99.90
23681;DHT22;62915;50.832;4.462;2023-01-28T07:58:35;4.40;99.90
23681;DHT22;62915;50.832;4.462;2023-01-28T08:01:02;4.40;99.90
23681;DHT22;62915;50.832;4.462;2023-01-28T08:03:27;4.50;99.90
23681;DHT22;62915;50.832;4.462;2023-01-28T08:05:55;4.30;99.90
23681;DHT22;62915;50.832;4.462;2023-01-28T08:08:25;4.40;99.90
23681;DHT22;62915;50.832;4.462;2023-01-28T08:10:51;4.40;99.90
23681;DHT22;62915;50.832;4.462;2023-01-28T08:13:18;4.40;99.90
23681;DHT22;62915;50.832;4.462;2023-01-28T08:15:44;4.40;99.90
23681;DHT22;62915;50.832;4.462;2023-01-28T08:18:12;4.40;99.90
23681;DHT22;62915;50.832;4.462;2023-01-28T08:20:38;4.40;99.90
23681;DHT22;62915;50.832;4.462;2023-01-28T08:23:15;4.40;99.90
23681;DHT22;62915;50.832;4.462;2023-01-28T08:25:41;4.20;99.90
23681;DHT22;62915;50.832;4.462;2023-01-28T08:28:08;4.20;99.90
23681;DHT22;62915;50.832;4.462;2023-01-28T08:30:34;4.20;99.90
23681;DHT22;62915;50.832;4.462;2023-01-28T08:33:02;4.30;99.90
23681;DHT22;62915;50.832;4.462;2023-01-28T08:35:28;4.30;99.90
23681;DHT22;62915;50.832;4.462;2023-01-28T08:37:53;4.30;99.90
23681;DHT22;62915;50.832;4.462;2023-01-28T08:40:20;4.40;99.90
23681;DHT22;62915;50.832;4.462;2023-01-28T08:42:50;4.40;99.90
23681;DHT22;62915;50.832;4.462;2023-01-28T08:45:17;4.30;99.90
23681;DHT22;62915;50.832;4.462;2023-01-28T08:47:51;4.20;99.90
23681;DHT22;62915;50.832;4.462;2023-01-28T08:50:18;4.10;99.90
23681;DHT22;62915;50.832;4.462;2023-01-28T08:52:45;4.10;99.90
23681;DHT22;62915;50.832;4.462;2023-01-28T08:55:12;4.10;99.90
23681;DHT22;62915;50.832;4.462;2023-01-28T08:57:38;4.10;99.90
23681;DHT22;62915;50.832;4.462;2023-01-28T09:00:05;4.10;99.90
23681;DHT22;62915;50.832;4.462;2023-01-28T09:02:31;4.00;99.90
23681;DHT22;62915;50.832;4.462;2023-01-28T09:04:57;4.00;99.90
23681;DHT22;62915;50.832;4.462;2023-01-28T09:07:22;4.10;99.90
23681;DHT22;62915;50.832;4.462;2023-01-28T09:09:48;4.10;99.90
23681;DHT22;62915;50.832;4.462;2023-01-28T09:12:14;4.10;99.90
23681;DHT22;62915;50.832;4.462;2023-01-28T09:14:41;4.10;99.90
23681;DHT22;62915;50.832;4.462;2023-01-28T09:17:07;4.00;99.90
23681;DHT22;62915;50.832;4.462;2023-01-28T09:19:32;4.10;99.90
23681;DHT22;62915;50.832;4.462;2023-01-28T09:21:58;4.10;99.90
23681;DHT22;62915;50.832;4.462;2023-01-28T09:24:24;4.20;99.90
23681;DHT22;62915;50.832;4.462;2023-01-28T09:26:50;4.20;99.90
23681;DHT22;62915;50.832;4.462;2023-01-28T09:29:16;4.10;99.90
23681;DHT22;62915;50.832;4.462;2023-01-28T09:31:42;4.20;99.90
23681;DHT22;62915;50.832;4.462;2023-01-28T09:34:09;4.30;99.90
23681;DHT22;62915;50.832;4.462;2023-01-28T09:36:35;4.30;99.90
23681;DHT22;62915;50.832;4.462;2023-01-28T09:39:01;4.30;99.90
23681;DHT22;62915;50.832;4.462;2023-01-28T09:41:37;4.30;99.90
23681;DHT22;62915;50.832;4.462;2023-01-28T09:46:45;4.20;99.90
23681;DHT22;62915;50.832;4.462;2023-01-28T09:49:26;4.30;99.90
23681;DHT22;62915;50.832;4.462;2023-01-28T09:51:56;4.30;99.90
23681;DHT22;62915;50.832;4.462;2023-01-28T09:54:33;4.20;99.90
23681;DHT22;62915;50.832;4.462;2023-01-28T09:57:04;4.30;99.90
23681;DHT22;62915;50.832;4.462;2023-01-28T09:59:33;4.40;99.90
23681;DHT22;62915;50.832;4.462;2023-01-28T10:04:58;4.20;99.90
23681;DHT22;62915;50.832;4.462;2023-01-28T10:07:53;4.30;99.90
23681;DHT22;62915;50.832;4.462;2023-01-28T10:10:31;4.30;99.90
23681;DHT22;62915;50.832;4.462;2023-01-28T10:16:26;4.20;99.90
23681;DHT22;62915;50.832;4.462;2023-01-28T10:19:04;4.10;99.90
23681;DHT22;62915;50.832;4.462;2023-01-28T10:21:42;4.10;99.90
23681;DHT22;62915;50.832;4.462;2023-01-28T10:24:23;4.10;99.90
23681;DHT22;62915;50.832;4.462;2023-01-28T10:26:50;4.00;99.90
23681;DHT22;62915;50.832;4.462;2023-01-28T10:29:18;4.10;99.90
23681;DHT22;62915;50.832;4.462;2023-01-28T10:32:06;4.10;99.90
23681;DHT22;62915;50.832;4.462;2023-01-28T10:34:39;4.20;99.90
23681;DHT22;62915;50.832;4.462;2023-01-28T10:37:05;4.20;99.90
23681;DHT22;62915;50.832;4.462;2023-01-28T10:39:30;4.30;99.90
23681;DHT22;62915;50.832;4.462;2023-01-28T10:41:56;4.20;99.90
23681;DHT22;62915;50.832;4.462;2023-01-28T10:44:37;4.20;99.90
23681;DHT22;62915;50.832;4.462;2023-01-28T10:47:13;4.20;99.90
23681;DHT22;62915;50.832;4.462;2023-01-28T10:49:50;4.20;99.90
23681;DHT22;62915;50.832;4.462;2023-01-28T10:52:17;4.20;99.90
23681;DHT22;62915;50.832;4.462;2023-01-28T10:54:43;4.30;99.90
23681;DHT22;62915;50.832;4.462;2023-01-28T10:57:14;4.30;99.90
23681;DHT22;62915;50.832;4.462;2023-01-28T10:59:42;4.30;99.90
23681;DHT22;62915;50.832;4.462;2023-01-28T11:02:25;4.30;99.90
23681;DHT22;62915;50.832;4.462;2023-01-28T11:07:29;4.40;99.90
23681;DHT22;62915;50.832;4.462;2023-01-28T11:09:55;4.30;99.90
23681;DHT22;62915;50.832;4.462;2023-01-28T11:12:29;4.50;99.90
23681;DHT22;62915;50.832;4.462;2023-01-28T11:15:03;4.40;99.90
23681;DHT22;62915;50.832;4.462;2023-01-28T11:17:32;4.50;99.90
23681;DHT22;62915;50.832;4.462;2023-01-28T11:22:56;4.50;99.90
23681;DHT22;62915;50.832;4.462;2023-01-28T11:25:33;4.30;99.90
23681;DHT22;62915;50.832;4.462;2023-01-28T11:28:02;4.30;99.90
23681;DHT22;62915;50.832;4.462;2023-01-28T11:30:32;4.30;99.90
23681;DHT22;62915;50.832;4.462;2023-01-28T11:33:27;4.20;99.90
23681;DHT22;62915;50.832;4.462;2023-01-28T11:36:02;4.00;99.90
23681;DHT22;62915;50.832;4.462;2023-01-28T11:38:29;4.00;99.90
23681;DHT22;62915;50.832;4.462;2023-01-28T11:40:56;4.00;99.90
23681;DHT22;62915;50.832;4.462;2023-01-28T11:43:25;4.00;99.90
23681;DHT22;62915;50.832;4.462;2023-01-28T11:54:03;4.20;99.90
23681;DHT22;62915;50.832;4.462;2023-01-28T11:59:40;4.40;99.90
23681;DHT22;62915;50.832;4.462;2023-01-28T12:20:48;4.60;99.90
23681;DHT22;62915;50.832;4.462;2023-01-28T12:29:03;4.80;99.90
23681;DHT22;62915;50.832;4.462;2023-01-28T12:34:55;4.80;99.90
23681;DHT22;62915;50.832;4.462;2023-01-28T12:37:37;4.70;99.90
23681;DHT22;62915;50.832;4.462;2023-01-28T12:43:03;4.80;99.90
23681;DHT22;62915;50.832;4.462;2023-01-28T12:45:32;4.70;99.90
23681;DHT22;62915;50.832;4.462;2023-01-28T12:48:08;4.60;99.90
23681;DHT22;62915;50.832;4.462;2023-01-28T12:50:37;4.80;99.90
23681;DHT22;62915;50.832;4.462;2023-01-28T12:56:08;5.00;99.90
23681;DHT22;62915;50.832;4.462;2023-01-28T12:58:50;5.00;99.90
23681;DHT22;62915;50.832;4.462;2023-01-28T13:01:22;5.00;99.90
23681;DHT22;62915;50.832;4.462;2023-01-28T13:06:46;5.40;99.90
23681;DHT22;62915;50.832;4.462;2023-01-28T13:09:18;5.40;99.90
23681;DHT22;62915;50.832;4.462;2023-01-28T13:11:44;5.60;99.90
23681;DHT22;62915;50.832;4.462;2023-01-28T13:14:11;5.60;99.90
23681;DHT22;62915;50.832;4.462;2023-01-28T13:16:38;5.60;99.90
23681;DHT22;62915;50.832;4.462;2023-01-28T13:19:23;5.70;99.90
23681;DHT22;62915;50.832;4.462;2023-01-28T13:21:49;6.00;99.90
23681;DHT22;62915;50.832;4.462;2023-01-28T13:26:55;5.80;99.90
23681;DHT22;62915;50.832;4.462;2023-01-28T13:31:49;5.90;99.90
23681;DHT22;62915;50.832;4.462;2023-01-28T13:34:37;5.70;99.90
23681;DHT22;62915;50.832;4.462;2023-01-28T13:39:54;6.10;99.90
23681;DHT22;62915;50.832;4.462;2023-01-28T13:42:23;6.10;99.90
23681;DHT22;62915;50.832;4.462;2023-01-28T13:44:49;6.10;99.90
23681;DHT22;62915;50.832;4.462;2023-01-28T13:47:33;6.20;99.90
23681;DHT22;62915;50.832;4.462;2023-01-28T13:50:32;6.10;99.90
23681;DHT22;62915;50.832;4.462;2023-01-28T13:53:24;6.00;99.90
23681;DHT22;62915;50.832;4.462;2023-01-28T13:55:57;5.90;99.90
23681;DHT22;62915;50.832;4.462;2023-01-28T14:01:47;5.70;99.90
23681;DHT22;62915;50.832;4.462;2023-01-28T14:05:21;5.60;99.90
23681;DHT22;62915;50.832;4.462;2023-01-28T14:15:45;5.50;99.90
23681;DHT22;62915;50.832;4.462;2023-01-28T14:18:40;5.40;99.90
23681;DHT22;62915;50.832;4.462;2023-01-28T14:21:12;5.40;99.90
23681;DHT22;62915;50.832;4.462;2023-01-28T14:23:53;5.60;99.90
23681;DHT22;62915;50.832;4.462;2023-01-28T14:31:40;5.70;99.90
23681;DHT22;62915;50.832;4.462;2023-01-28T14:36:38;5.40;99.90
23681;DHT22;62915;50.832;4.462;2023-01-28T14:39:10;5.40;99.90
23681;DHT22;62915;50.832;4.462;2023-01-28T14:41:42;5.50;99.90
23681;DHT22;62915;50.832;4.462;2023-01-28T14:44:34;5.60;99.90
23681;DHT22;62915;50.832;4.462;2023-01-28T14:47:35;5.60;99.90
23681;DHT22;62915;50.832;4.462;2023-01-28T14:55:29;5.60;99.90
23681;DHT22;62915;50.832;4.462;2023-01-28T14:58:20;5.70;99.90
23681;DHT22;62915;50.832;4.462;2023-01-28T15:00:55;5.60;99.90
23681;DHT22;62915;50.832;4.462;2023-01-28T15:03:23;5.50;99.90
23681;DHT22;62915;50.832;4.462;2023-01-28T15:05:59;5.40;99.90
23681;DHT22;62915;50.832;4.462;2023-01-28T15:08:25;5.50;99.90
23681;DHT22;62915;50.832;4.462;2023-01-28T15:10:52;5.60;99.90
23681;DHT22;62915;50.832;4.462;2023-01-28T15:13:27;5.60;99.90
23681;DHT22;62915;50.832;4.462;2023-01-28T15:15:53;5.60;99.90
23681;DHT22;62915;50.832;4.462;2023-01-28T15:18:33;5.40;99.90
23681;DHT22;62915;50.832;4.462;2023-01-28T15:21:00;5.30;99.90
23681;DHT22;62915;50.832;4.462;2023-01-28T15:23:30;5.30;99.90
23681;DHT22;62915;50.832;4.462;2023-01-28T15:25:56;5.40;99.90
23681;DHT22;62915;50.832;4.462;2023-01-28T15:28:27;5.60;99.90
23681;DHT22;62915;50.832;4.462;2023-01-28T15:30:54;5.40;99.90
23681;DHT22;62915;50.832;4.462;2023-01-28T15:33:22;5.50;99.90
23681;DHT22;62915;50.832;4.462;2023-01-28T15:35:49;5.50;99.90
23681;DHT22;62915;50.832;4.462;2023-01-28T15:38:16;5.50;99.90
23681;DHT22;62915;50.832;4.462;2023-01-28T15:40:54;5.50;99.90
23681;DHT22;62915;50.832;4.462;2023-01-28T15:43:31;5.50;99.90
23681;DHT22;62915;50.832;4.462;2023-01-28T15:45:59;5.40;99.90
23681;DHT22;62915;50.832;4.462;2023-01-28T15:48:28;5.50;99.90
23681;DHT22;62915;50.832;4.462;2023-01-28T15:51:04;5.40;99.90
23681;DHT22;62915;50.832;4.462;2023-01-28T15:53:35;5.50;99.90
23681;DHT22;62915;50.832;4.462;2023-01-28T15:56:10;5.40;99.90
23681;DHT22;62915;50.832;4.462;2023-01-28T15:58:36;5.50;99.90
23681;DHT22;62915;50.832;4.462;2023-01-28T16:03:36;5.50;99.90
23681;DHT22;62915;50.832;4.462;2023-01-28T16:06:09;5.40;99.90
23681;DHT22;62915;50.832;4.462;2023-01-28T16:08:39;5.40;99.90
23681;DHT22;62915;50.832;4.462;2023-01-28T16:11:07;5.40;99.90
23681;DHT22;62915;50.832;4.462;2023-01-28T16:13:34;5.30;99.90
23681;DHT22;62915;50.832;4.462;2023-01-28T16:16:02;5.30;99.90
23681;DHT22;62915;50.832;4.462;2023-01-28T16:18:42;5.20;99.90
23681;DHT22;62915;50.832;4.462;2023-01-28T16:21:27;5.20;99.90
23681;DHT22;62915;50.832;4.462;2023-01-28T16:24:23;5.10;99.90
23681;DHT22;62915;50.832;4.462;2023-01-28T16:26:58;5.10;99.90
23681;DHT22;62915;50.832;4.462;2023-01-28T16:29:25;5.00;99.90
23681;DHT22;62915;50.832;4.462;2023-01-28T16:31:51;5.00;99.90
23681;DHT22;62915;50.832;4.462;2023-01-28T16:34:16;4.90;99.90
23681;DHT22;62915;50.832;4.462;2023-01-28T16:36:42;4.90;99.90
23681;DHT22;62915;50.832;4.462;2023-01-28T16:39:08;4.90;99.90
23681;DHT22;62915;50.832;4.462;2023-01-28T16:41:41;4.80;99.90
23681;DHT22;62915;50.832;4.462;2023-01-28T16:44:12;4.80;99.90
23681;DHT22;62915;50.832;4.462;2023-01-28T16:46:38;4.90;99.90
23681;DHT22;62915;50.832;4.462;2023-01-28T16:49:04;4.90;99.90
23681;DHT22;62915;50.832;4.462;2023-01-28T16:51:30;5.00;99.90
23681;DHT22;62915;50.832;4.462;2023-01-28T16:53:56;5.00;99.90
23681;DHT22;62915;50.832;4.462;2023-01-28T16:56:26;5.10;99.90
23681;DHT22;62915;50.832;4.462;2023-01-28T16:58:52;5.00;99.90
23681;DHT22;62915;50.832;4.462;2023-01-28T17:01:18;5.10;99.90
23681;DHT22;62915;50.832;4.462;2023-01-28T17:03:44;5.00;99.90
23681;DHT22;62915;50.832;4.462;2023-01-28T17:06:17;5.10;99.90
23681;DHT22;62915;50.832;4.462;2023-01-28T17:08:44;5.10;99.90
23681;DHT22;62915;50.832;4.462;2023-01-28T17:11:12;5.10;99.90
23681;DHT22;62915;50.832;4.462;2023-01-28T17:13:40;5.10;99.90
23681;DHT22;62915;50.832;4.462;2023-01-28T17:16:06;5.10;99.90
23681;DHT22;62915;50.832;4.462;2023-01-28T17:18:32;5.00;99.90
23681;DHT22;62915;50.832;4.462;2023-01-28T17:21:05;5.00;99.90
23681;DHT22;62915;50.832;4.462;2023-01-28T17:23:33;4.90;99.90
23681;DHT22;62915;50.832;4.462;2023-01-28T17:26:04;4.90;99.90
23681;DHT22;62915;50.832;4.462;2023-01-28T17:28:30;4.80;99.90
23681;DHT22;62915;50.832;4.462;2023-01-28T17:30:55;4.70;99.90
23681;DHT22;62915;50.832;4.462;2023-01-28T17:33:21;4.70;99.90
23681;DHT22;62915;50.832;4.462;2023-01-28T17:35:47;4.70;99.90
23681;DHT22;62915;50.832;4.462;2023-01-28T17:38:13;4.60;99.90
23681;DHT22;62915;50.832;4.462;2023-01-28T17:40:38;4.60;99.90
23681;DHT22;62915;50.832;4.462;2023-01-28T17:43:04;4.50;99.90
23681;DHT22;62915;50.832;4.462;2023-01-28T17:45:30;4.50;99.90
23681;DHT22;62915;50.832;4.462;2023-01-28T17:47:56;4.40;99.90
23681;DHT22;62915;50.832;4.462;2023-01-28T17:50:22;4.40;99.90
23681;DHT22;62915;50.832;4.462;2023-01-28T17:52:55;4.40;99.90
23681;DHT22;62915;50.832;4.462;2023-01-28T17:55:22;4.30;99.90
23681;DHT22;62915;50.832;4.462;2023-01-28T17:57:48;4.30;99.90
23681;DHT22;62915;50.832;4.462;2023-01-28T18:00:14;4.20;99.90
23681;DHT22;62915;50.832;4.462;2023-01-28T18:02:40;4.20;99.90
23681;DHT22;62915;50.832;4.462;2023-01-28T18:05:06;4.20;99.90